createdAt,value
2019-03-29T00:00:17.664Z,-76
2019-03-29T00:01:17.627Z,-77
2019-03-29T00:02:17.718Z,-76
2019-03-29T00:03:17.698Z,-75
2019-03-29T00:04:17.716Z,-74
2019-03-29T00:05:19.308Z,-76
2019-03-29T00:06:17.848Z,-77
2019-03-29T00:07:17.692Z,-76
2019-03-29T00:08:17.655Z,-76
2019-03-29T00:09:17.638Z,-78
2019-03-29T00:10:17.648Z,-75
2019-03-29T00:11:17.648Z,-75
2019-03-29T00:12:18.903Z,-74
2019-03-29T00:13:17.707Z,-75
2019-03-29T00:14:17.793Z,-76
2019-03-29T00:15:18.657Z,-73
2019-03-29T00:16:17.726Z,-75
2019-03-29T00:17:18.643Z,-74
2019-03-29T00:18:17.663Z,-74
2019-03-29T00:19:17.689Z,-76
2019-03-29T00:20:17.668Z,-76
2019-03-29T00:21:17.613Z,-77
2019-03-29T00:22:17.692Z,-76
2019-03-29T00:23:17.732Z,-75
2019-03-29T00:24:17.655Z,-74
2019-03-29T00:25:17.655Z,-74
2019-03-29T00:26:17.793Z,-75
2019-03-29T00:27:19.461Z,-72
2019-03-29T00:28:17.594Z,-74
2019-03-29T00:29:17.632Z,-74
2019-03-29T00:30:17.720Z,-74
2019-03-29T00:31:17.633Z,-75
2019-03-29T00:32:17.705Z,-72
2019-03-29T00:33:17.596Z,-74
2019-03-29T00:34:17.596Z,-73
2019-03-29T00:35:18.512Z,-73
2019-03-29T00:36:17.760Z,-74
2019-03-29T00:37:18.495Z,-74
2019-03-29T00:38:17.621Z,-74
2019-03-29T00:39:17.669Z,-75
2019-03-29T00:40:17.663Z,-74
2019-03-29T00:41:17.582Z,-74
2019-03-29T00:42:18.586Z,-74
2019-03-29T00:43:17.646Z,-75
2019-03-29T00:44:17.609Z,-74
2019-03-29T00:45:19.506Z,-74
2019-03-29T00:46:17.645Z,-74
2019-03-29T00:47:17.596Z,-74
2019-03-29T00:48:17.581Z,-74
2019-03-29T00:49:17.636Z,-74
2019-03-29T00:50:17.647Z,-75
2019-03-29T00:51:17.830Z,-74
2019-03-29T00:52:17.571Z,-73
2019-03-29T00:53:17.594Z,-74
2019-03-29T00:54:17.588Z,-74
2019-03-29T00:55:17.646Z,-74
2019-03-29T00:56:17.610Z,-74
2019-03-29T00:57:17.767Z,-74
2019-03-29T00:58:17.590Z,-74
2019-03-29T00:59:17.617Z,-75
2019-03-29T01:00:17.590Z,-75
2019-03-29T01:01:17.540Z,-74
2019-03-29T01:02:19.591Z,-74
2019-03-29T01:03:17.572Z,-74
2019-03-29T01:04:17.536Z,-74
2019-03-29T01:05:17.528Z,-74
2019-03-29T01:06:17.537Z,-74
2019-03-29T01:07:17.679Z,-74
2019-03-29T01:08:17.573Z,-74
2019-03-29T01:09:17.557Z,-74
2019-03-29T01:10:17.544Z,-74
2019-03-29T01:11:17.549Z,-74
2019-03-29T01:12:17.615Z,-74
2019-03-29T01:13:17.579Z,-74
2019-03-29T01:14:17.594Z,-74
2019-03-29T01:15:17.741Z,-74
2019-03-29T01:16:17.515Z,-74
2019-03-29T01:17:17.552Z,-74
2019-03-29T01:18:17.849Z,-74
2019-03-29T01:19:17.740Z,-74
2019-03-29T01:20:17.622Z,-74
2019-03-29T01:21:17.625Z,-74
2019-03-29T01:22:17.599Z,-74
2019-03-29T01:23:17.513Z,-74
2019-03-29T01:24:17.606Z,-74
2019-03-29T01:25:17.531Z,-74
2019-03-29T01:26:17.709Z,-75
2019-03-29T01:27:19.450Z,-74
2019-03-29T01:28:17.540Z,-74
2019-03-29T01:29:17.542Z,-74
2019-03-29T01:30:18.906Z,-74
2019-03-29T01:31:17.823Z,-74
2019-03-29T01:32:17.529Z,-74
2019-03-29T01:33:17.743Z,-74
2019-03-29T01:34:17.588Z,-74
2019-03-29T01:35:17.587Z,-73
2019-03-29T01:36:17.538Z,-74
2019-03-29T01:37:17.534Z,-73
2019-03-29T01:38:24.906Z,-73
2019-03-29T01:39:17.588Z,-73
2019-03-29T01:40:17.643Z,-74
2019-03-29T01:41:17.521Z,-73
2019-03-29T01:42:19.430Z,-73
2019-03-29T01:43:17.521Z,-74
2019-03-29T01:44:18.386Z,-72
2019-03-29T01:45:17.610Z,-74
2019-03-29T01:46:17.516Z,-74
2019-03-29T01:47:17.488Z,-74
2019-03-29T01:48:17.554Z,-73
2019-03-29T01:49:17.705Z,-74
2019-03-29T01:50:17.459Z,-73
2019-03-29T01:51:17.563Z,-74
2019-03-29T01:52:17.469Z,-74
2019-03-29T01:53:17.492Z,-74
2019-03-29T01:54:17.518Z,-74
2019-03-29T01:55:17.543Z,-72
2019-03-29T01:56:17.602Z,-73
2019-03-29T01:57:17.503Z,-73
2019-03-29T01:58:17.460Z,-73
2019-03-29T01:59:17.537Z,-73
2019-03-29T02:00:17.740Z,-74
2019-03-29T02:01:17.517Z,-73
2019-03-29T02:02:17.667Z,-73
2019-03-29T02:03:17.453Z,-73
2019-03-29T02:04:17.510Z,-73
2019-03-29T02:05:17.558Z,-73
2019-03-29T02:06:17.648Z,-73
2019-03-29T02:07:17.500Z,-72
2019-03-29T02:08:17.504Z,-73
2019-03-29T02:09:17.482Z,-73
2019-03-29T02:10:17.553Z,-73
2019-03-29T02:11:17.651Z,-73
2019-03-29T02:12:17.485Z,-74
2019-03-29T02:13:17.480Z,-74
2019-03-29T02:14:18.570Z,-74
2019-03-29T02:15:17.502Z,-73
2019-03-29T02:16:17.436Z,-73
2019-03-29T02:17:17.491Z,-74
2019-03-29T02:18:17.473Z,-74
2019-03-29T02:19:17.552Z,-74
2019-03-29T02:20:17.451Z,-74
2019-03-29T02:21:17.580Z,-74
2019-03-29T02:22:17.511Z,-74
2019-03-29T02:23:17.554Z,-74
2019-03-29T02:24:17.586Z,-74
2019-03-29T02:25:17.583Z,-73
2019-03-29T02:26:17.483Z,-74
2019-03-29T02:27:17.486Z,-73
2019-03-29T02:28:19.424Z,-72
2019-03-29T02:29:17.443Z,-73
2019-03-29T02:30:17.449Z,-74
2019-03-29T02:31:17.556Z,-73
2019-03-29T02:32:18.154Z,-73
2019-03-29T02:33:17.526Z,-73
2019-03-29T02:34:17.492Z,-74
2019-03-29T02:35:17.616Z,-74
2019-03-29T02:36:17.522Z,-73
2019-03-29T02:37:17.449Z,-74
2019-03-29T02:38:17.602Z,-74
2019-03-29T02:39:17.796Z,-73
2019-03-29T02:40:17.572Z,-74
2019-03-29T02:41:20.015Z,-73
2019-03-29T02:42:17.458Z,-73
2019-03-29T02:43:17.679Z,-73
2019-03-29T02:44:17.682Z,-71
2019-03-29T02:45:17.832Z,-74
2019-03-29T02:46:17.487Z,-74
2019-03-29T02:47:17.476Z,-73
2019-03-29T02:48:17.720Z,-74
2019-03-29T02:49:17.472Z,-74
2019-03-29T02:50:17.476Z,-74
2019-03-29T02:51:17.555Z,-73
2019-03-29T02:52:17.425Z,-73
2019-03-29T02:53:17.530Z,-74
2019-03-29T02:54:17.463Z,-73
2019-03-29T02:55:17.472Z,-74
2019-03-29T02:56:17.535Z,-74
2019-03-29T02:57:17.678Z,-74
2019-03-29T02:58:17.466Z,-73
2019-03-29T02:59:17.421Z,-74
2019-03-29T03:00:17.464Z,-74
2019-03-29T03:01:17.411Z,-73
2019-03-29T03:02:17.578Z,-73
2019-03-29T03:03:17.461Z,-74
2019-03-29T03:04:17.550Z,-73
2019-03-29T03:05:17.422Z,-73
2019-03-29T03:06:17.965Z,-74
2019-03-29T03:07:17.475Z,-73
2019-03-29T03:08:17.453Z,-74
2019-03-29T03:09:17.427Z,-74
2019-03-29T03:10:17.498Z,-74
2019-03-29T03:11:17.473Z,-74
2019-03-29T03:12:18.820Z,-71
2019-03-29T03:13:17.456Z,-72
2019-03-29T03:14:17.482Z,-73
2019-03-29T03:15:17.456Z,-74
2019-03-29T03:16:17.399Z,-73
2019-03-29T03:17:17.428Z,-73
2019-03-29T03:18:17.559Z,-73
2019-03-29T03:19:17.438Z,-73
2019-03-29T03:20:17.427Z,-73
2019-03-29T03:21:17.620Z,-73
2019-03-29T03:22:17.454Z,-74
2019-03-29T03:23:17.604Z,-74
2019-03-29T03:24:17.430Z,-75
2019-03-29T03:25:17.528Z,-74
2019-03-29T03:26:17.426Z,-77
2019-03-29T03:27:17.408Z,-76
2019-03-29T03:28:17.631Z,-75
2019-03-29T03:29:18.702Z,-75
2019-03-29T03:30:17.519Z,-75
2019-03-29T03:31:17.585Z,-74
2019-03-29T03:32:17.577Z,-75
2019-03-29T03:33:17.524Z,-77
2019-03-29T03:34:17.449Z,-76
2019-03-29T03:35:17.530Z,-75
2019-03-29T03:36:17.476Z,-75
2019-03-29T03:37:17.442Z,-74
2019-03-29T03:38:17.420Z,-75
2019-03-29T03:39:32.933Z,-74
2019-03-29T03:40:17.444Z,-76
2019-03-29T03:41:17.357Z,-77
2019-03-29T03:42:17.465Z,-75
2019-03-29T03:43:17.349Z,-75
2019-03-29T03:44:17.376Z,-76
2019-03-29T03:45:17.406Z,-76
2019-03-29T03:46:17.397Z,-75
2019-03-29T03:47:17.336Z,-75
2019-03-29T03:48:17.425Z,-76
2019-03-29T03:49:17.357Z,-75
2019-03-29T03:50:17.406Z,-74
2019-03-29T03:51:17.353Z,-75
2019-03-29T03:52:19.808Z,-75
2019-03-29T03:53:17.348Z,-75
2019-03-29T03:54:17.387Z,-74
2019-03-29T03:55:17.346Z,-76
2019-03-29T03:56:17.307Z,-75
2019-03-29T03:57:17.357Z,-77
2019-03-29T03:58:17.412Z,-76
2019-03-29T03:59:17.355Z,-76
2019-03-29T04:00:17.616Z,-76
2019-03-29T04:01:17.352Z,-75
2019-03-29T04:02:17.374Z,-74
2019-03-29T04:03:17.352Z,-74
2019-03-29T04:04:17.376Z,-75
2019-03-29T04:05:17.443Z,-76
2019-03-29T04:06:17.403Z,-74
2019-03-29T04:07:17.370Z,-76
2019-03-29T04:08:17.424Z,-76
2019-03-29T04:09:17.421Z,-75
2019-03-29T04:10:17.364Z,-77
2019-03-29T04:11:17.759Z,-74
2019-03-29T04:12:18.448Z,-69
2019-03-29T04:13:17.407Z,-76
2019-03-29T04:14:17.343Z,-77
2019-03-29T04:15:17.338Z,-77
2019-03-29T04:16:17.526Z,-76
2019-03-29T04:17:18.239Z,-70
2019-03-29T04:18:17.533Z,-76
2019-03-29T04:19:17.495Z,-76
2019-03-29T04:20:17.367Z,-75
2019-03-29T04:21:17.537Z,-74
2019-03-29T04:22:17.383Z,-78
2019-03-29T04:23:18.505Z,-74
2019-03-29T04:24:17.551Z,-75
2019-03-29T04:25:17.416Z,-76
2019-03-29T04:26:17.375Z,-77
2019-03-29T04:27:17.336Z,-77
2019-03-29T04:28:17.347Z,-75
2019-03-29T04:29:17.359Z,-76
2019-03-29T04:30:17.290Z,-75
2019-03-29T04:31:17.449Z,-76
2019-03-29T04:32:17.335Z,-75
2019-03-29T04:33:17.401Z,-75
2019-03-29T04:34:17.341Z,-73
2019-03-29T04:35:17.343Z,-72
2019-03-29T04:36:18.726Z,-74
2019-03-29T04:37:17.301Z,-76
2019-03-29T04:38:17.324Z,-75
2019-03-29T04:39:17.294Z,-76
2019-03-29T04:40:17.306Z,-77
2019-03-29T04:41:17.293Z,-75
2019-03-29T04:42:17.270Z,-75
2019-03-29T04:43:17.329Z,-76
2019-03-29T04:44:17.248Z,-78
2019-03-29T04:45:17.325Z,-76
2019-03-29T04:46:17.315Z,-76
2019-03-29T04:47:17.306Z,-77
2019-03-29T04:48:17.425Z,-77
2019-03-29T04:49:17.214Z,-75
2019-03-29T04:50:17.243Z,-75
2019-03-29T04:51:17.332Z,-74
2019-03-29T04:52:17.270Z,-77
2019-03-29T04:53:17.322Z,-77
2019-03-29T04:54:17.639Z,-72
2019-03-29T04:55:17.312Z,-77
2019-03-29T04:56:17.412Z,-74
2019-03-29T04:57:17.336Z,-75
2019-03-29T04:58:17.227Z,-76
2019-03-29T04:59:17.235Z,-78
2019-03-29T05:00:17.244Z,-78
2019-03-29T05:01:17.864Z,-77
2019-03-29T05:02:17.359Z,-76
2019-03-29T05:03:17.242Z,-75
2019-03-29T05:04:17.371Z,-76
2019-03-29T05:05:17.412Z,-78
2019-03-29T05:06:17.211Z,-74
2019-03-29T05:07:17.278Z,-75
2019-03-29T05:08:17.225Z,-78
2019-03-29T05:09:17.234Z,-77
2019-03-29T05:10:22.293Z,-76
2019-03-29T05:11:17.239Z,-75
2019-03-29T05:12:17.186Z,-78
2019-03-29T05:13:17.252Z,-76
2019-03-29T05:14:17.211Z,-78
2019-03-29T05:15:17.186Z,-76
2019-03-29T05:16:17.842Z,-73
2019-03-29T05:17:17.220Z,-77
2019-03-29T05:18:17.264Z,-76
2019-03-29T05:19:17.327Z,-75
2019-03-29T05:20:17.190Z,-78
2019-03-29T05:21:17.210Z,-76
2019-03-29T05:22:17.220Z,-76
2019-03-29T05:23:17.193Z,-78
2019-03-29T05:24:17.193Z,-77
2019-03-29T05:25:17.365Z,-77
2019-03-29T05:26:17.176Z,-75
2019-03-29T05:27:17.244Z,-77
2019-03-29T05:28:17.205Z,-77
2019-03-29T05:29:17.246Z,-76
2019-03-29T05:30:17.236Z,-77
2019-03-29T05:31:17.234Z,-75
2019-03-29T05:32:18.286Z,-73
2019-03-29T05:33:17.213Z,-74
2019-03-29T05:34:17.212Z,-74
2019-03-29T05:35:17.210Z,-75
2019-03-29T05:36:17.220Z,-76
2019-03-29T05:37:17.177Z,-77
2019-03-29T05:38:17.417Z,-77
2019-03-29T05:39:17.153Z,-77
2019-03-29T05:40:17.206Z,-76
2019-03-29T05:41:17.229Z,-78
2019-03-29T05:42:17.171Z,-77
2019-03-29T05:43:17.265Z,-76
2019-03-29T05:44:17.189Z,-74
2019-03-29T05:45:17.185Z,-78
2019-03-29T05:46:17.266Z,-76
2019-03-29T05:47:17.223Z,-75
2019-03-29T05:48:17.181Z,-77
2019-03-29T05:49:17.231Z,-76
2019-03-29T05:50:17.135Z,-77
2019-03-29T05:51:17.192Z,-77
2019-03-29T05:52:17.165Z,-77
2019-03-29T05:53:18.544Z,-74
2019-03-29T05:54:17.268Z,-77
2019-03-29T05:55:17.234Z,-77
2019-03-29T05:56:17.146Z,-76
2019-03-29T05:57:17.210Z,-77
2019-03-29T05:58:17.166Z,-77
2019-03-29T05:59:17.397Z,-76
2019-03-29T06:00:17.299Z,-76
2019-03-29T06:01:17.230Z,-76
2019-03-29T06:02:17.108Z,-77
2019-03-29T06:03:17.177Z,-77
2019-03-29T06:04:17.264Z,-76
2019-03-29T06:05:17.115Z,-77
2019-03-29T06:06:17.149Z,-74
2019-03-29T06:07:17.178Z,-77
2019-03-29T06:08:17.177Z,-77
2019-03-29T06:09:17.174Z,-77
2019-03-29T06:10:17.119Z,-75
2019-03-29T06:11:17.252Z,-77
2019-03-29T06:12:17.139Z,-75
2019-03-29T06:13:17.313Z,-75
2019-03-29T06:14:17.179Z,-77
2019-03-29T06:15:17.115Z,-77
2019-03-29T06:16:17.203Z,-78
2019-03-29T06:17:17.132Z,-75
2019-03-29T06:18:17.122Z,-77
2019-03-29T06:19:17.105Z,-76
2019-03-29T06:20:17.390Z,-76
2019-03-29T06:21:17.191Z,-77
2019-03-29T06:22:17.241Z,-75
2019-03-29T06:23:17.192Z,-75
2019-03-29T06:24:17.157Z,-77
2019-03-29T06:25:17.254Z,-77
2019-03-29T06:26:17.161Z,-77
2019-03-29T06:27:17.130Z,-77
2019-03-29T06:28:17.267Z,-77
2019-03-29T06:29:17.113Z,-77
2019-03-29T06:30:17.125Z,-76
2019-03-29T06:31:17.066Z,-77
2019-03-29T06:32:17.121Z,-77
2019-03-29T06:33:17.166Z,-75
2019-03-29T06:34:17.139Z,-76
2019-03-29T06:35:17.130Z,-75
2019-03-29T06:36:17.247Z,-75
2019-03-29T06:37:17.137Z,-75
2019-03-29T06:38:17.129Z,-75
2019-03-29T06:39:17.102Z,-75
2019-03-29T06:40:17.112Z,-76
2019-03-29T06:41:17.361Z,-75
2019-03-29T06:42:17.664Z,-74
2019-03-29T06:43:17.325Z,-75
2019-03-29T06:44:17.133Z,-74
2019-03-29T06:45:17.130Z,-75
2019-03-29T06:46:17.111Z,-75
2019-03-29T06:47:17.318Z,-75
2019-03-29T06:48:17.226Z,-75
2019-03-29T06:49:17.156Z,-75
2019-03-29T06:50:17.135Z,-75
2019-03-29T06:51:17.242Z,-75
2019-03-29T06:52:18.287Z,-74
2019-03-29T06:53:17.166Z,-75
2019-03-29T06:54:18.648Z,-75
2019-03-29T06:55:19.154Z,-75
2019-03-29T06:56:17.092Z,-74
2019-03-29T06:57:17.140Z,-74
2019-03-29T06:58:17.068Z,-75
2019-03-29T06:59:17.124Z,-75
2019-03-29T07:00:17.099Z,-73
2019-03-29T07:01:17.187Z,-74
2019-03-29T07:02:17.100Z,-75
2019-03-29T07:03:17.106Z,-73
2019-03-29T07:04:17.163Z,-74
2019-03-29T07:05:17.093Z,-74
2019-03-29T07:06:17.115Z,-74
2019-03-29T07:07:17.091Z,-75
2019-03-29T07:08:17.095Z,-74
2019-03-29T07:09:17.051Z,-74
2019-03-29T07:10:17.064Z,-74
2019-03-29T07:11:18.616Z,-74
2019-03-29T07:12:17.110Z,-74
2019-03-29T07:13:17.158Z,-75
2019-03-29T07:14:17.064Z,-74
2019-03-29T07:15:17.135Z,-74
2019-03-29T07:16:17.214Z,-74
2019-03-29T07:17:17.078Z,-74
2019-03-29T07:18:17.046Z,-75
2019-03-29T07:19:17.020Z,-75
2019-03-29T07:20:18.423Z,-74
2019-03-29T07:21:22.581Z,-74
2019-03-29T07:22:17.041Z,-75
2019-03-29T07:23:17.080Z,-75
2019-03-29T07:24:17.225Z,-75
2019-03-29T07:25:17.431Z,-75
2019-03-29T07:26:17.081Z,-74
2019-03-29T07:27:17.067Z,-74
2019-03-29T07:28:17.034Z,-74
2019-03-29T07:29:17.035Z,-74
2019-03-29T07:30:17.027Z,-75
2019-03-29T07:31:17.148Z,-74
2019-03-29T07:32:17.039Z,-75
2019-03-29T07:33:17.056Z,-73
2019-03-29T07:34:17.132Z,-75
2019-03-29T07:35:17.052Z,-74
2019-03-29T07:36:17.086Z,-75
2019-03-29T07:37:18.016Z,-74
2019-03-29T07:38:17.040Z,-74
2019-03-29T07:39:17.905Z,-75
2019-03-29T07:40:17.114Z,-74
2019-03-29T07:41:32.930Z,-75
2019-03-29T07:42:17.034Z,-73
2019-03-29T07:43:16.997Z,-74
2019-03-29T07:44:17.057Z,-76
2019-03-29T07:45:17.028Z,-74
2019-03-29T07:46:17.361Z,-75
2019-03-29T07:47:17.054Z,-75
2019-03-29T07:48:17.012Z,-74
2019-03-29T07:49:17.085Z,-74
2019-03-29T07:50:19.734Z,-75
2019-03-29T07:51:17.036Z,-74
2019-03-29T07:52:17.029Z,-75
2019-03-29T07:53:16.984Z,-74
2019-03-29T07:54:17.113Z,-74
2019-03-29T07:55:17.150Z,-75
2019-03-29T07:56:17.021Z,-75
2019-03-29T07:57:18.323Z,-74
2019-03-29T07:58:16.980Z,-75
2019-03-29T07:59:18.376Z,-73
2019-03-29T08:00:21.092Z,-75
2019-03-29T08:01:17.026Z,-75
2019-03-29T08:02:17.073Z,-74
2019-03-29T08:03:17.058Z,-74
2019-03-29T08:04:16.999Z,-74
2019-03-29T08:05:18.688Z,-74
2019-03-29T08:06:16.978Z,-74
2019-03-29T08:08:35.055Z,-74
2019-03-29T08:09:23.156Z,-75
2019-03-29T08:11:28.897Z,-74
2019-03-29T08:12:17.232Z,-74
2019-03-29T08:13:16.981Z,-74
2019-03-29T08:14:17.010Z,-75
2019-03-29T08:15:16.957Z,-75
2019-03-29T08:16:16.946Z,-74
2019-03-29T08:17:16.952Z,-74
2019-03-29T08:18:16.962Z,-74
2019-03-29T08:19:18.744Z,-73
2019-03-29T08:21:17.028Z,-74
2019-03-29T08:22:16.999Z,-74
2019-03-29T08:23:17.238Z,-74
2019-03-29T08:24:16.990Z,-73
2019-03-29T08:25:17.005Z,-74
2019-03-29T08:26:16.967Z,-74
2019-03-29T08:27:17.014Z,-74
2019-03-29T08:28:16.917Z,-73
2019-03-29T08:29:17.253Z,-75
2019-03-29T08:30:16.946Z,-74
2019-03-29T08:31:17.168Z,-75
2019-03-29T08:32:17.875Z,-75
2019-03-29T08:33:17.047Z,-75
2019-03-29T08:34:16.957Z,-75
2019-03-29T08:35:16.994Z,-75
2019-03-29T08:36:16.925Z,-74
2019-03-29T08:37:17.037Z,-74
2019-03-29T08:38:16.950Z,-74
2019-03-29T08:39:28.779Z,-74
2019-03-29T08:40:16.929Z,-74
2019-03-29T08:41:16.936Z,-75
2019-03-29T08:42:19.382Z,-75
2019-03-29T08:43:16.948Z,-75
2019-03-29T08:44:17.094Z,-74
2019-03-29T08:45:17.007Z,-75
2019-03-29T08:46:16.963Z,-75
2019-03-29T08:47:16.924Z,-75
2019-03-29T08:48:17.027Z,-75
2019-03-29T08:49:17.555Z,-74
2019-03-29T08:50:17.048Z,-74
2019-03-29T08:51:17.210Z,-74
2019-03-29T08:52:17.018Z,-74
2019-03-29T08:53:17.036Z,-74
2019-03-29T08:54:16.937Z,-75
2019-03-29T08:55:18.253Z,-75
2019-03-29T08:56:17.039Z,-75
2019-03-29T08:57:17.014Z,-74
2019-03-29T08:58:17.015Z,-74
2019-03-29T08:59:18.261Z,-73
2019-03-29T09:00:18.417Z,-74
2019-03-29T09:01:20.157Z,-74
2019-03-29T09:02:17.017Z,-74
2019-03-29T09:03:16.901Z,-74
2019-03-29T09:04:16.914Z,-74
2019-03-29T09:05:16.910Z,-75
2019-03-29T09:06:16.872Z,-74
2019-03-29T09:07:16.888Z,-74
2019-03-29T09:08:16.964Z,-74
2019-03-29T09:09:16.970Z,-74
2019-03-29T09:10:16.997Z,-74
2019-03-29T09:11:16.957Z,-74
2019-03-29T09:12:16.918Z,-74
2019-03-29T09:13:16.962Z,-74
2019-03-29T09:14:16.868Z,-74
2019-03-29T09:15:16.884Z,-75
2019-03-29T09:16:16.935Z,-74
2019-03-29T09:17:16.915Z,-74
2019-03-29T09:18:16.905Z,-74
2019-03-29T09:19:16.918Z,-74
2019-03-29T09:20:16.923Z,-74
2019-03-29T09:21:16.898Z,-74
2019-03-29T09:22:17.105Z,-75
2019-03-29T09:23:16.887Z,-74
2019-03-29T09:24:22.999Z,-74
2019-03-29T09:25:16.877Z,-74
2019-03-29T09:26:16.844Z,-74
2019-03-29T09:27:16.929Z,-74
2019-03-29T09:28:16.897Z,-74
2019-03-29T09:29:17.955Z,-72
2019-03-29T09:30:16.934Z,-74
2019-03-29T09:31:16.889Z,-74
2019-03-29T09:32:16.844Z,-74
2019-03-29T09:33:16.892Z,-74
2019-03-29T09:34:16.853Z,-75
2019-03-29T09:35:16.874Z,-74
2019-03-29T09:36:16.893Z,-74
2019-03-29T09:37:16.861Z,-75
2019-03-29T09:38:16.879Z,-74
2019-03-29T09:39:16.847Z,-75
2019-03-29T09:40:16.839Z,-74
2019-03-29T09:41:16.859Z,-75
2019-03-29T09:42:31.061Z,-74
2019-03-29T09:43:16.858Z,-73
2019-03-29T09:44:18.630Z,-74
2019-03-29T09:45:16.862Z,-74
2019-03-29T09:46:16.833Z,-75
2019-03-29T09:47:16.853Z,-73
2019-03-29T09:48:16.834Z,-74
2019-03-29T09:49:17.112Z,-73
2019-03-29T09:50:16.820Z,-74
2019-03-29T09:51:16.829Z,-75
2019-03-29T09:52:16.815Z,-74
2019-03-29T09:53:16.860Z,-77
2019-03-29T09:54:21.050Z,-74
2019-03-29T09:55:19.760Z,-74
2019-03-29T09:56:19.954Z,-75
2019-03-29T09:57:16.804Z,-75
2019-03-29T09:58:17.348Z,-75
2019-03-29T09:59:17.067Z,-75
2019-03-29T10:00:24.335Z,-76
2019-03-29T10:01:21.697Z,-75
2019-03-29T10:02:16.864Z,-75
2019-03-29T10:03:17.047Z,-75
2019-03-29T10:04:16.828Z,-75
2019-03-29T10:05:20.901Z,-75
2019-03-29T10:06:16.866Z,-75
2019-03-29T10:07:16.821Z,-75
2019-03-29T10:08:16.837Z,-75
2019-03-29T10:09:16.844Z,-76
2019-03-29T10:10:18.076Z,-74
2019-03-29T10:11:16.830Z,-76
2019-03-29T10:12:16.898Z,-76
2019-03-29T10:13:16.955Z,-75
2019-03-29T10:14:17.684Z,-75
2019-03-29T10:15:16.853Z,-76
2019-03-29T10:16:16.842Z,-74
2019-03-29T10:17:16.951Z,-75
2019-03-29T10:18:16.818Z,-75
2019-03-29T10:19:16.791Z,-76
2019-03-29T10:20:16.809Z,-75
2019-03-29T10:21:17.951Z,-74
2019-03-29T10:22:16.961Z,-75
2019-03-29T10:23:18.067Z,-72
2019-03-29T10:24:16.798Z,-75
2019-03-29T10:25:21.669Z,-74
2019-03-29T10:26:16.764Z,-76
2019-03-29T10:27:19.631Z,-76
2019-03-29T10:28:16.798Z,-76
2019-03-29T10:29:18.199Z,-76
2019-03-29T10:30:16.813Z,-77
2019-03-29T10:31:33.117Z,-76
2019-03-29T10:32:16.750Z,-75
2019-03-29T10:33:16.802Z,-76
2019-03-29T10:34:18.248Z,-75
2019-03-29T10:35:16.812Z,-77
2019-03-29T10:36:16.789Z,-76
2019-03-29T10:37:16.840Z,-76
2019-03-29T10:38:19.018Z,-77
2019-03-29T10:39:16.774Z,-77
2019-03-29T10:40:16.804Z,-77
2019-03-29T10:41:16.867Z,-75
2019-03-29T10:42:16.766Z,-76
2019-03-29T10:43:16.859Z,-77
2019-03-29T10:44:16.867Z,-77
2019-03-29T10:45:16.817Z,-76
2019-03-29T10:46:16.861Z,-76
2019-03-29T10:47:16.843Z,-75
2019-03-29T10:48:18.141Z,-76
2019-03-29T10:49:16.981Z,-76
2019-03-29T10:50:16.738Z,-76
2019-03-29T10:51:16.811Z,-74
2019-03-29T10:52:16.785Z,-75
2019-03-29T10:53:16.814Z,-75
2019-03-29T10:54:16.819Z,-77
2019-03-29T10:55:16.822Z,-75
2019-03-29T10:56:18.098Z,-77
2019-03-29T10:57:16.752Z,-77
2019-03-29T10:58:16.729Z,-76
2019-03-29T10:59:28.387Z,-76
2019-03-29T11:00:16.825Z,-77
2019-03-29T11:01:16.803Z,-75
2019-03-29T11:02:16.710Z,-75
2019-03-29T11:03:16.826Z,-76
2019-03-29T11:04:16.713Z,-77
2019-03-29T11:05:16.841Z,-76
2019-03-29T11:06:16.777Z,-76
2019-03-29T11:07:16.737Z,-77
2019-03-29T11:08:16.749Z,-77
2019-03-29T11:09:16.768Z,-76
2019-03-29T11:10:16.762Z,-76
2019-03-29T11:11:16.733Z,-76
2019-03-29T11:12:16.711Z,-76
2019-03-29T11:13:16.702Z,-76
2019-03-29T11:14:16.691Z,-76
2019-03-29T11:15:16.679Z,-76
2019-03-29T11:16:16.817Z,-74
2019-03-29T11:17:16.716Z,-76
2019-03-29T11:18:16.811Z,-76
2019-03-29T11:19:16.728Z,-77
2019-03-29T11:20:19.193Z,-77
2019-03-29T11:21:16.905Z,-77
2019-03-29T11:22:17.064Z,-76
2019-03-29T11:23:16.759Z,-77
2019-03-29T11:24:16.825Z,-76
2019-03-29T11:25:16.802Z,-78
2019-03-29T11:26:16.752Z,-77
2019-03-29T11:27:16.761Z,-76
2019-03-29T11:28:16.697Z,-78
2019-03-29T11:29:16.656Z,-79
2019-03-29T11:30:16.710Z,-78
2019-03-29T11:31:16.743Z,-76
2019-03-29T11:32:16.767Z,-78
2019-03-29T11:33:16.759Z,-79
2019-03-29T11:34:16.771Z,-78
2019-03-29T11:35:16.792Z,-78
2019-03-29T11:36:16.729Z,-78
2019-03-29T11:37:16.662Z,-76
2019-03-29T11:38:16.778Z,-78
2019-03-29T11:39:16.698Z,-78
2019-03-29T11:40:16.700Z,-78
2019-03-29T11:41:16.662Z,-77
2019-03-29T11:42:16.735Z,-76
2019-03-29T11:43:27.718Z,-77
2019-03-29T11:44:16.739Z,-78
2019-03-29T11:45:16.757Z,-78
2019-03-29T11:46:16.702Z,-78
2019-03-29T11:47:16.764Z,-78
2019-03-29T11:48:16.703Z,-78
2019-03-29T11:49:16.734Z,-79
2019-03-29T11:50:16.692Z,-78
2019-03-29T11:51:20.406Z,-78
2019-03-29T11:52:16.786Z,-78
2019-03-29T11:53:16.682Z,-78
2019-03-29T11:54:16.714Z,-78
2019-03-29T11:55:16.879Z,-79
2019-03-29T11:56:16.673Z,-78
2019-03-29T11:57:16.761Z,-78
2019-03-29T11:58:16.693Z,-78
2019-03-29T11:59:16.684Z,-78
2019-03-29T12:00:16.689Z,-77
2019-03-29T12:01:16.673Z,-78
2019-03-29T12:02:32.033Z,-77
2019-03-29T12:03:16.699Z,-78
2019-03-29T12:04:16.703Z,-78
2019-03-29T12:05:16.677Z,-78
2019-03-29T12:06:16.710Z,-78
2019-03-29T12:07:16.646Z,-78
2019-03-29T12:08:16.665Z,-79
2019-03-29T12:09:16.681Z,-79
2019-03-29T12:10:16.670Z,-77
2019-03-29T12:11:16.707Z,-79
2019-03-29T12:12:16.629Z,-79
2019-03-29T12:13:16.706Z,-78
2019-03-29T12:14:16.698Z,-77
2019-03-29T12:15:16.630Z,-78
2019-03-29T12:16:16.639Z,-77
2019-03-29T12:17:16.687Z,-77
2019-03-29T12:18:16.664Z,-76
2019-03-29T12:19:16.643Z,-77
2019-03-29T12:20:16.673Z,-76
2019-03-29T12:21:16.652Z,-77
2019-03-29T12:22:16.666Z,-77
2019-03-29T12:23:16.619Z,-79
2019-03-29T12:24:16.612Z,-77
2019-03-29T12:25:16.685Z,-77
2019-03-29T12:26:16.671Z,-74
2019-03-29T12:27:16.711Z,-76
2019-03-29T12:28:16.626Z,-76
2019-03-29T12:29:16.703Z,-75
2019-03-29T12:30:32.691Z,-78
2019-03-29T12:31:16.764Z,-78
2019-03-29T12:32:16.632Z,-77
2019-03-29T12:33:16.724Z,-79
2019-03-29T12:34:16.679Z,-79
2019-03-29T12:35:16.710Z,-78
2019-03-29T12:36:16.642Z,-78
2019-03-29T12:37:18.010Z,-75
2019-03-29T12:38:16.605Z,-78
2019-03-29T12:39:16.626Z,-78
2019-03-29T12:40:16.674Z,-79
2019-03-29T12:41:16.655Z,-76
2019-03-29T12:42:16.591Z,-77
2019-03-29T12:43:16.712Z,-78
2019-03-29T12:44:16.726Z,-78
2019-03-29T12:45:16.612Z,-77
2019-03-29T12:46:16.647Z,-78
2019-03-29T12:47:16.766Z,-78
2019-03-29T12:48:16.655Z,-78
2019-03-29T12:49:16.878Z,-78
2019-03-29T12:50:16.621Z,-78
2019-03-29T12:51:16.597Z,-78
2019-03-29T12:52:16.782Z,-78
2019-03-29T12:53:16.610Z,-78
2019-03-29T12:54:16.838Z,-78
2019-03-29T12:55:16.573Z,-78
2019-03-29T12:56:16.683Z,-76
2019-03-29T12:57:16.707Z,-78
2019-03-29T12:58:16.673Z,-79
2019-03-29T12:59:16.879Z,-77
2019-03-29T13:00:16.702Z,-77
2019-03-29T13:01:16.591Z,-80
2019-03-29T13:02:16.680Z,-78
2019-03-29T13:03:16.651Z,-79
2019-03-29T13:04:16.648Z,-78
2019-03-29T13:05:16.677Z,-78
2019-03-29T13:06:16.610Z,-78
2019-03-29T13:07:16.692Z,-79
2019-03-29T13:08:16.663Z,-77
2019-03-29T13:09:16.703Z,-77
2019-03-29T13:10:16.586Z,-76
2019-03-29T13:11:18.028Z,-76
2019-03-29T13:12:16.615Z,-79
2019-03-29T13:13:16.583Z,-78
2019-03-29T13:14:16.771Z,-79
2019-03-29T13:15:16.562Z,-79
2019-03-29T13:16:18.389Z,-77
2019-03-29T13:17:16.681Z,-78
2019-03-29T13:18:16.588Z,-80
2019-03-29T13:19:16.630Z,-80
2019-03-29T13:20:16.618Z,-79
2019-03-29T13:21:16.818Z,-79
2019-03-29T13:22:16.617Z,-79
2019-03-29T13:23:16.555Z,-79
2019-03-29T13:24:16.744Z,-76
2019-03-29T13:25:16.742Z,-75
2019-03-29T13:26:16.721Z,-77
2019-03-29T13:27:16.590Z,-77
2019-03-29T13:28:16.622Z,-75
2019-03-29T13:29:16.803Z,-74
2019-03-29T13:30:17.706Z,-76
2019-03-29T13:31:16.533Z,-76
2019-03-29T13:32:16.635Z,-76
2019-03-29T13:33:16.591Z,-77
2019-03-29T13:34:16.628Z,-76
2019-03-29T13:35:16.630Z,-76
2019-03-29T13:36:16.526Z,-77
2019-03-29T13:37:16.639Z,-76
2019-03-29T13:38:16.547Z,-75
2019-03-29T13:39:16.607Z,-77
2019-03-29T13:40:16.605Z,-78
2019-03-29T13:41:16.678Z,-77
2019-03-29T13:42:16.974Z,-76
2019-03-29T13:43:16.540Z,-77
2019-03-29T13:44:28.707Z,-78
2019-03-29T13:45:16.741Z,-78
2019-03-29T13:46:16.627Z,-77
2019-03-29T13:47:19.752Z,-76
2019-03-29T13:48:16.611Z,-76
2019-03-29T13:49:16.531Z,-77